createdAt,value
2023-02-22T00:01:02.368Z,69.13
2023-02-22T00:03:35.206Z,68.28
2023-02-22T00:06:05.410Z,67.98
2023-02-22T00:08:36.438Z,67.28
2023-02-22T00:11:10.053Z,67.21
2023-02-22T00:13:38.621Z,67.30
2023-02-22T00:16:07.529Z,67.22
2023-02-22T00:18:35.889Z,66.77
2023-02-22T00:21:10.898Z,66.78
2023-02-22T00:23:46.796Z,67.09
2023-02-22T00:26:21.140Z,67.55
2023-02-22T00:28:52.226Z,67.09
2023-02-22T00:31:21.502Z,67.30
2023-02-22T00:33:50.937Z,67.02
2023-02-22T00:36:19.292Z,67.18
2023-02-22T00:38:48.285Z,66.77
2023-02-22T00:41:16.893Z,65.86
2023-02-22T00:43:45.547Z,65.88
2023-02-22T00:46:14.346Z,65.54
2023-02-22T00:48:42.717Z,65.58
2023-02-22T00:51:12.239Z,64.98
2023-02-22T00:53:40.533Z,65.40
2023-02-22T00:56:08.917Z,65.63
2023-02-22T00:58:37.255Z,65.21
2023-02-22T01:01:08.433Z,65.57
2023-02-22T01:03:39.812Z,65.09
2023-02-22T01:06:08.530Z,64.93
2023-02-22T01:08:37.010Z,64.09
2023-02-22T01:11:05.847Z,63.48
2023-02-22T01:13:35.031Z,63.44
2023-02-22T01:16:03.616Z,62.65
2023-02-22T01:18:32.041Z,62.03
2023-02-22T01:21:02.004Z,62.38
2023-02-22T01:23:30.558Z,62.32
2023-02-22T01:25:59.652Z,61.68
2023-02-22T01:28:29.468Z,61.69
2023-02-22T01:30:58.356Z,61.81
2023-02-22T01:33:26.633Z,61.59
2023-02-22T01:35:54.885Z,61.87
2023-02-22T01:38:23.388Z,61.81
2023-02-22T01:40:52.104Z,61.58
2023-02-22T01:43:26.400Z,61.92
2023-02-22T01:46:21.279Z,61.36
2023-02-22T01:48:57.061Z,61.56
2023-02-22T01:51:49.481Z,61.42
2023-02-22T01:54:26.642Z,60.97
2023-02-22T01:57:06.512Z,61.24
2023-02-22T01:59:38.166Z,60.96
2023-02-22T02:02:06.968Z,61.02
2023-02-22T02:04:36.703Z,61.24
2023-02-22T02:07:08.252Z,61.24
2023-02-22T02:09:42.848Z,61.34
2023-02-22T02:12:12.647Z,61.69
2023-02-22T02:14:42.266Z,61.62
2023-02-22T02:17:13.966Z,62.30
2023-02-22T02:19:48.144Z,62.28
2023-02-22T02:22:45.740Z,62.75
2023-02-22T02:25:23.291Z,62.59
2023-02-22T02:28:28.775Z,63.20
2023-02-22T02:31:18.842Z,63.67
2023-02-22T02:34:09.744Z,64.14
2023-02-22T02:36:44.873Z,64.65
2023-02-22T02:39:29.587Z,64.74
2023-02-22T02:42:00.681Z,64.94
2023-02-22T02:44:32.571Z,65.13
2023-02-22T02:47:02.165Z,65.20
2023-02-22T02:49:51.541Z,66.06
2023-02-22T02:52:22.039Z,66.22
2023-02-22T02:54:51.339Z,66.04
2023-02-22T02:57:19.851Z,65.76
2023-02-22T02:59:48.409Z,65.54
2023-02-22T03:02:41.916Z,66.00
2023-02-22T03:05:28.314Z,65.57
2023-02-22T03:08:31.016Z,65.91
2023-02-22T03:11:15.716Z,66.54
2023-02-22T03:14:07.819Z,65.94
2023-02-22T03:16:46.164Z,66.04
2023-02-22T03:19:46.029Z,65.84
2023-02-22T03:22:21.361Z,65.67
2023-02-22T03:25:11.922Z,65.94
2023-02-22T03:27:53.676Z,65.79
2023-02-22T03:30:45.402Z,65.88
2023-02-22T03:33:23.853Z,65.72
2023-02-22T03:35:57.399Z,65.61
2023-02-22T03:38:29.316Z,65.61
2023-02-22T03:41:01.295Z,65.62
2023-02-22T03:43:37.365Z,65.91
2023-02-22T03:46:10.896Z,65.64
2023-02-22T03:48:50.640Z,65.83
2023-02-22T03:51:22.529Z,64.75
2023-02-22T03:53:54.534Z,65.20
2023-02-22T03:56:36.083Z,65.11
2023-02-22T03:59:07.389Z,64.74
2023-02-22T04:01:36.257Z,65.23
2023-02-22T04:04:05.164Z,65.33
2023-02-22T04:06:34.108Z,65.32
2023-02-22T04:09:03.661Z,65.10
2023-02-22T04:11:32.049Z,65.39
2023-02-22T04:14:01.394Z,65.80
2023-02-22T04:16:30.315Z,65.89
2023-02-22T04:18:58.866Z,65.69
2023-02-22T04:21:27.451Z,66.02
2023-02-22T04:23:55.733Z,66.48
2023-02-22T04:26:24.513Z,66.82
2023-02-22T04:28:56.616Z,67.09
2023-02-22T04:31:26.611Z,66.70
2023-02-22T04:33:56.612Z,66.91
2023-02-22T04:36:32.070Z,66.59
2023-02-22T04:39:01.876Z,66.53
2023-02-22T04:41:31.781Z,67.13
2023-02-22T04:44:00.266Z,67.23
2023-02-22T04:46:29.505Z,67.34
2023-02-22T04:48:58.148Z,66.69
2023-02-22T04:51:29.704Z,66.17
2023-02-22T04:54:04.287Z,65.57
2023-02-22T04:56:36.323Z,64.82
2023-02-22T04:59:04.781Z,63.98
2023-02-22T05:01:34.547Z,64.36
2023-02-22T05:04:08.385Z,64.36
2023-02-22T05:06:36.797Z,64.30
2023-02-22T05:09:05.265Z,64.72
2023-02-22T05:11:33.492Z,64.88
2023-02-22T05:14:01.722Z,65.24
2023-02-22T05:16:30.161Z,65.27
2023-02-22T05:18:58.571Z,65.96
2023-02-22T05:21:26.851Z,66.08
2023-02-22T05:23:55.316Z,65.88
2023-02-22T05:26:23.693Z,65.64
2023-02-22T05:28:51.996Z,65.36
2023-02-22T05:31:20.562Z,65.44
2023-02-22T05:33:48.905Z,65.27
2023-02-22T05:36:17.199Z,65.11
2023-02-22T05:38:45.573Z,64.71
2023-02-22T05:41:14.457Z,64.27
2023-02-22T05:43:43.165Z,64.18
2023-02-22T05:46:11.705Z,64.31
2023-02-22T05:48:43.147Z,63.78
2023-02-22T05:51:12.491Z,63.71
2023-02-22T05:53:40.809Z,64.01
2023-02-22T05:56:09.972Z,63.82
2023-02-22T05:58:38.240Z,63.56
2023-02-22T06:01:07.973Z,63.74
2023-02-22T06:03:36.242Z,63.64
2023-02-22T06:06:06.100Z,63.74
2023-02-22T06:08:34.413Z,63.40
2023-02-22T06:11:02.695Z,63.01
2023-02-22T06:13:32.115Z,62.75
2023-02-22T06:16:00.521Z,62.78
2023-02-22T06:18:31.328Z,61.83
2023-02-22T06:20:59.899Z,61.29
2023-02-22T06:23:28.468Z,61.56
2023-02-22T06:25:56.821Z,61.84
2023-02-22T06:28:26.545Z,61.61
2023-02-22T06:30:55.891Z,61.66
2023-02-22T06:33:24.197Z,61.23
2023-02-22T06:35:52.627Z,61.31
2023-02-22T06:38:25.126Z,61.52
2023-02-22T06:40:56.071Z,61.37
2023-02-22T06:43:25.263Z,61.49
2023-02-22T06:45:53.934Z,61.36
2023-02-22T06:48:25.515Z,61.31
2023-02-22T06:50:53.948Z,60.64
2023-02-22T06:53:22.249Z,60.57
2023-02-22T06:55:53.875Z,60.43
2023-02-22T06:58:33.785Z,60.30
2023-02-22T07:01:04.316Z,59.93
2023-02-22T07:03:33.792Z,59.35
2023-02-22T07:06:02.737Z,58.60
2023-02-22T07:08:31.178Z,58.52
2023-02-22T07:11:00.552Z,57.51
2023-02-22T07:13:29.920Z,57.77
2023-02-22T07:15:58.297Z,57.66
2023-02-22T07:18:26.761Z,57.85
2023-02-22T07:20:55.050Z,57.65
2023-02-22T07:23:24.669Z,57.74
2023-02-22T07:25:53.304Z,57.04
2023-02-22T07:28:21.659Z,57.36
2023-02-22T07:30:50.161Z,57.55
2023-02-22T07:33:21.123Z,56.66
2023-02-22T07:35:50.516Z,56.78
2023-02-22T07:38:20.075Z,55.96
2023-02-22T07:40:48.495Z,55.85
2023-02-22T07:43:16.853Z,56.00
2023-02-22T07:45:45.787Z,55.69
2023-02-22T07:48:17.108Z,56.04
2023-02-22T07:50:46.553Z,55.52
2023-02-22T07:53:19.056Z,55.39
2023-02-22T07:55:51.589Z,55.52
2023-02-22T07:58:23.455Z,55.70
2023-02-22T08:00:52.086Z,56.31
2023-02-22T08:03:26.110Z,56.01
2023-02-22T08:05:56.825Z,56.14
2023-02-22T08:08:25.201Z,56.66
2023-02-22T08:10:59.465Z,56.60
2023-02-22T08:13:27.812Z,56.95
2023-02-22T08:15:56.522Z,57.43
2023-02-22T08:18:25.868Z,57.65
2023-02-22T08:20:54.474Z,57.79
2023-02-22T08:23:25.663Z,57.94
2023-02-22T08:25:56.742Z,58.36
2023-02-22T08:28:25.551Z,58.99
2023-02-22T08:30:54.073Z,58.69
2023-02-22T08:33:22.647Z,59.03
2023-02-22T08:35:52.055Z,59.06
2023-02-22T08:38:34.266Z,58.75
2023-02-22T08:41:02.646Z,59.05
2023-02-22T08:43:33.544Z,59.20
2023-02-22T08:46:02.021Z,58.83
2023-02-22T08:48:30.617Z,58.41
2023-02-22T08:50:59.004Z,58.58
2023-02-22T08:53:27.524Z,58.32
2023-02-22T08:55:55.985Z,58.05
2023-02-22T08:58:24.607Z,57.84
2023-02-22T09:00:53.180Z,58.43
2023-02-22T09:03:21.915Z,58.33
2023-02-22T09:05:50.408Z,58.29
2023-02-22T09:08:19.640Z,58.65
2023-02-22T09:10:50.345Z,58.18
2023-02-22T09:13:19.520Z,58.17
2023-02-22T09:15:47.814Z,57.52
2023-02-22T09:18:18.608Z,57.48
2023-02-22T09:20:46.921Z,57.92
2023-02-22T09:23:19.766Z,57.75
2023-02-22T09:25:50.508Z,56.77
2023-02-22T09:28:19.250Z,55.91
2023-02-22T09:30:47.790Z,55.99
2023-02-22T09:33:18.148Z,55.62
2023-02-22T09:35:47.588Z,55.72
2023-02-22T09:38:18.389Z,56.18
2023-02-22T09:40:54.564Z,56.00
2023-02-22T09:43:31.857Z,56.10
2023-02-22T09:46:23.154Z,55.63
2023-02-22T09:49:05.706Z,55.87
2023-02-22T09:51:42.545Z,55.84
2023-02-22T09:54:18.665Z,55.95
2023-02-22T09:56:49.562Z,56.26
2023-02-22T09:59:27.415Z,56.05
2023-02-22T10:02:08.574Z,56.27
2023-02-22T10:04:43.459Z,56.01
2023-02-22T10:07:31.384Z,56.66
2023-02-22T10:10:06.621Z,56.32
2023-02-22T10:12:56.325Z,56.66
2023-02-22T10:15:30.459Z,55.26
2023-02-22T10:18:33.036Z,55.83
2023-02-22T10:21:28.136Z,56.47
2023-02-22T10:24:10.065Z,56.47
2023-02-22T10:26:43.044Z,56.30
2023-02-22T10:29:15.088Z,56.57
2023-02-22T10:31:47.248Z,57.08
2023-02-22T10:34:20.769Z,56.95
2023-02-22T10:36:51.867Z,57.29
2023-02-22T10:39:37.081Z,57.32
2023-02-22T10:42:08.308Z,57.28
2023-02-22T10:44:38.696Z,57.17
2023-02-22T10:47:12.268Z,57.25
2023-02-22T10:49:47.601Z,57.03
2023-02-22T10:52:34.156Z,57.01
2023-02-22T10:55:15.003Z,57.61
2023-02-22T10:57:50.094Z,56.97
2023-02-22T11:00:26.510Z,56.58
2023-02-22T11:03:00.644Z,56.29
2023-02-22T11:05:37.037Z,56.59
2023-02-22T11:08:15.904Z,56.69
2023-02-22T11:10:44.542Z,56.11
2023-02-22T11:13:29.686Z,56.34
2023-02-22T11:16:17.750Z,55.68
2023-02-22T11:18:48.535Z,54.98
2023-02-22T11:21:23.021Z,55.28
2023-02-22T11:24:01.636Z,54.41
2023-02-22T11:26:36.972Z,54.38
2023-02-22T11:29:18.805Z,54.17
2023-02-22T11:31:49.516Z,54.00
2023-02-22T11:34:39.455Z,54.60
2023-02-22T11:37:17.515Z,53.83
2023-02-22T11:39:46.319Z,51.83
2023-02-22T11:42:26.603Z,51.72
2023-02-22T11:45:15.280Z,51.74
2023-02-22T11:48:06.245Z,52.31
2023-02-22T11:50:53.058Z,52.51
2023-02-22T11:53:58.871Z,52.67
2023-02-22T11:56:40.488Z,52.60
2023-02-22T11:59:37.271Z,52.40
2023-02-22T12:02:26.388Z,51.88
2023-02-22T12:05:31.118Z,51.20
2023-02-22T12:08:19.758Z,50.75
2023-02-22T12:10:55.678Z,49.98
2023-02-22T12:13:51.670Z,50.00
2023-02-22T12:17:09.304Z,50.85
2023-02-22T12:19:53.656Z,50.90
2023-02-22T12:22:38.614Z,50.60
2023-02-22T12:25:30.077Z,50.70
2023-02-22T12:28:25.473Z,50.26
2023-02-22T12:31:04.214Z,50.36
2023-02-22T12:33:47.103Z,50.24
2023-02-22T12:36:19.620Z,50.05
2023-02-22T12:38:59.257Z,49.76
2023-02-22T12:41:34.645Z,50.48
2023-02-22T12:44:26.814Z,50.74
2023-02-22T12:46:57.484Z,50.61
2023-02-22T12:49:41.047Z,48.97
2023-02-22T12:52:28.621Z,48.30
2023-02-22T12:55:16.305Z,48.47
2023-02-22T12:58:02.758Z,48.68
2023-02-22T13:00:50.884Z,48.04
2023-02-22T13:03:42.381Z,48.26
2023-02-22T13:06:20.699Z,48.64
2023-02-22T13:09:05.733Z,48.51
2023-02-22T13:11:40.990Z,48.71
2023-02-22T13:14:27.823Z,48.87
2023-02-22T13:17:20.999Z,48.96
2023-02-22T13:19:57.997Z,48.52
2023-02-22T13:22:34.260Z,48.10
2023-02-22T13:25:10.002Z,48.04
2023-02-22T13:27:50.373Z,48.56
2023-02-22T13:30:57.376Z,49.19
2023-02-22T13:33:31.789Z,49.30
2023-02-22T13:36:20.532Z,48.91
2023-02-22T13:39:16.180Z,49.32
2023-02-22T13:41:55.570Z,49.28
2023-02-22T13:44:35.716Z,49.49
2023-02-22T13:47:21.846Z,49.03
2023-02-22T13:50:02.602Z,49.29
2023-02-22T13:52:32.009Z,49.42
2023-02-22T13:55:03.634Z,49.60
2023-02-22T13:57:39.821Z,49.32
2023-02-22T14:00:21.338Z,49.76
2023-02-22T14:03:26.247Z,49.88
2023-02-22T14:05:57.413Z,49.87
2023-02-22T14:08:28.103Z,49.75
2023-02-22T14:10:58.788Z,49.56
2023-02-22T14:13:29.524Z,50.09
2023-02-22T14:15:57.986Z,50.37
2023-02-22T14:18:31.434Z,50.69
2023-02-22T14:21:19.556Z,50.46
2023-02-22T14:23:53.341Z,50.98
2023-02-22T14:26:29.385Z,49.92
2023-02-22T14:29:10.705Z,49.61
2023-02-22T14:31:45.281Z,49.70
2023-02-22T14:34:18.473Z,49.47
2023-02-22T14:37:07.806Z,49.74
2023-02-22T14:39:39.881Z,49.63
2023-02-22T14:42:27.196Z,49.96
2023-02-22T14:45:20.591Z,50.60
2023-02-22T14:48:13.836Z,50.03
2023-02-22T14:50:45.225Z,50.33
2023-02-22T14:53:13.776Z,50.23
2023-02-22T14:56:08.587Z,50.40
2023-02-22T14:58:51.846Z,50.58
2023-02-22T15:01:49.036Z,50.50
2023-02-22T15:04:29.393Z,50.78
2023-02-22T15:07:00.194Z,50.64
2023-02-22T15:09:33.619Z,50.54
2023-02-22T15:12:03.289Z,50.96
2023-02-22T15:14:38.067Z,50.97
2023-02-22T15:17:21.907Z,51.43
2023-02-22T15:19:51.190Z,51.62
2023-02-22T15:22:25.543Z,51.93
2023-02-22T15:25:08.242Z,52.36
2023-02-22T15:27:37.502Z,52.56
2023-02-22T15:30:15.149Z,53.31
2023-02-22T15:33:01.127Z,52.80
2023-02-22T15:35:33.713Z,53.52
2023-02-22T15:38:06.332Z,53.38
2023-02-22T15:40:35.693Z,53.52
2023-02-22T15:43:11.016Z,53.96
2023-02-22T15:45:43.380Z,53.86
2023-02-22T15:48:12.349Z,53.90
2023-02-22T15:50:58.013Z,53.88
2023-02-22T15:53:31.033Z,54.31
2023-02-22T15:56:02.597Z,54.48
2023-02-22T15:58:30.909Z,54.54
2023-02-22T16:01:04.865Z,54.67
2023-02-22T16:03:47.415Z,54.63
2023-02-22T16:06:38.009Z,54.97
2023-02-22T16:09:16.195Z,55.00
2023-02-22T16:11:47.914Z,55.13
2023-02-22T16:14:30.537Z,55.23
2023-02-22T16:17:35.785Z,55.68
2023-02-22T16:20:19.579Z,55.81
2023-02-22T16:22:49.676Z,55.89
2023-02-22T16:25:18.174Z,55.84
2023-02-22T16:27:47.789Z,56.11
2023-02-22T16:30:24.857Z,56.19
2023-02-22T16:32:55.858Z,56.32
2023-02-22T16:35:29.202Z,56.38
2023-02-22T16:38:03.213Z,56.48
2023-02-22T16:40:39.635Z,56.72
2023-02-22T16:43:12.746Z,56.59
2023-02-22T16:45:42.588Z,56.26
2023-02-22T16:48:38.541Z,56.05
2023-02-22T16:51:22.790Z,55.98
2023-02-22T16:53:53.276Z,56.02
2023-02-22T16:56:29.093Z,55.93
2023-02-22T16:59:01.217Z,56.11
2023-02-22T17:01:30.140Z,55.75
2023-02-22T17:04:01.162Z,55.39
2023-02-22T17:06:29.508Z,55.25
2023-02-22T17:08:59.927Z,55.81
2023-02-22T17:11:28.269Z,55.83
2023-02-22T17:13:56.566Z,55.81
2023-02-22T17:16:25.069Z,56.63
2023-02-22T17:18:54.648Z,56.66
2023-02-22T17:21:23.369Z,55.87
2023-02-22T17:23:51.782Z,55.97
2023-02-22T17:26:20.288Z,55.94
2023-02-22T17:28:48.595Z,56.22
2023-02-22T17:31:21.766Z,56.12
2023-02-22T17:33:51.554Z,56.36
2023-02-22T17:36:21.055Z,56.34
2023-02-22T17:38:50.204Z,56.03
2023-02-22T17:41:18.452Z,56.17
2023-02-22T17:43:46.705Z,56.27
2023-02-22T17:46:15.226Z,56.54
2023-02-22T17:48:43.657Z,56.80
2023-02-22T17:51:12.626Z,56.68
2023-02-22T17:53:41.093Z,57.30
2023-02-22T17:56:12.599Z,57.49
2023-02-22T17:58:41.486Z,57.54
2023-02-22T18:01:20.898Z,57.69
2023-02-22T18:03:49.652Z,57.80
2023-02-22T18:06:23.331Z,57.86
2023-02-22T18:08:56.263Z,58.32
2023-02-22T18:11:27.105Z,58.78
2023-02-22T18:13:57.034Z,58.33
2023-02-22T18:16:26.177Z,58.65
2023-02-22T18:18:55.644Z,58.73
2023-02-22T18:21:24.079Z,58.70
2023-02-22T18:23:54.151Z,58.67
2023-02-22T18:26:24.245Z,59.07
2023-02-22T18:28:53.959Z,59.04
2023-02-22T18:31:23.370Z,59.08
2023-02-22T18:33:52.579Z,58.57
2023-02-22T18:36:24.242Z,58.84
2023-02-22T18:38:53.819Z,58.79
2023-02-22T18:41:25.623Z,58.78
2023-02-22T18:43:55.777Z,58.82
2023-02-22T18:46:24.864Z,58.70
2023-02-22T18:48:55.430Z,58.09
2023-02-22T18:51:24.748Z,58.06
2023-02-22T18:53:57.819Z,58.20
2023-02-22T18:56:30.337Z,58.49
2023-02-22T18:59:01.154Z,57.94
2023-02-22T19:01:30.900Z,58.00
2023-02-22T19:04:00.779Z,58.25
2023-02-22T19:06:29.332Z,57.93
2023-02-22T19:09:01.579Z,57.88
2023-02-22T19:11:30.304Z,58.05
2023-02-22T19:13:58.866Z,58.16
2023-02-22T19:16:27.424Z,58.75
2023-02-22T19:18:59.757Z,58.04
2023-02-22T19:21:29.322Z,57.70
2023-02-22T19:24:04.678Z,57.69
2023-02-22T19:26:32.924Z,57.83
2023-02-22T19:29:08.665Z,57.81
2023-02-22T19:31:37.221Z,58.10
2023-02-22T19:34:11.300Z,58.04
2023-02-22T19:36:41.173Z,58.17
2023-02-22T19:39:09.591Z,57.89
2023-02-22T19:41:38.430Z,57.91
2023-02-22T19:44:07.466Z,58.06
2023-02-22T19:46:36.785Z,58.04
2023-02-22T19:49:06.007Z,58.41
2023-02-22T19:51:34.728Z,58.00
2023-02-22T19:54:06.209Z,58.02
2023-02-22T19:56:35.748Z,58.13
2023-02-22T19:59:13.534Z,57.95
2023-02-22T20:01:44.642Z,57.98
2023-02-22T20:04:18.714Z,57.89
2023-02-22T20:06:48.767Z,57.79
2023-02-22T20:09:20.004Z,57.58
2023-02-22T20:11:48.415Z,57.90
2023-02-22T20:14:23.569Z,57.50
2023-02-22T20:16:55.853Z,57.34
2023-02-22T20:19:24.931Z,57.69
2023-02-22T20:21:57.888Z,57.89
2023-02-22T20:24:27.936Z,57.74
2023-02-22T20:26:58.633Z,57.47
2023-02-22T20:29:30.864Z,57.35
2023-02-22T20:32:00.865Z,57.82
2023-02-22T20:34:36.491Z,57.80
2023-02-22T20:37:05.157Z,57.81
2023-02-22T20:39:33.635Z,57.69
2023-02-22T20:42:03.960Z,57.65
2023-02-22T20:44:32.376Z,58.15
2023-02-22T20:47:01.431Z,58.41
2023-02-22T20:49:29.922Z,58.49
2023-02-22T20:51:58.504Z,58.64
2023-02-22T20:54:26.975Z,58.73
2023-02-22T20:56:55.312Z,58.98
2023-02-22T20:59:23.658Z,58.75
2023-02-22T21:01:53.321Z,58.45
2023-02-22T21:04:23.412Z,58.60
2023-02-22T21:06:52.342Z,58.56
2023-02-22T21:09:21.452Z,58.53
2023-02-22T21:11:50.695Z,58.58
2023-02-22T21:14:20.160Z,58.24
2023-02-22T21:16:50.243Z,58.39
2023-02-22T21:19:26.038Z,58.24
2023-02-22T21:21:56.042Z,58.51
2023-02-22T21:24:25.365Z,58.28
2023-02-22T21:26:53.732Z,58.59
2023-02-22T21:29:21.973Z,58.88
2023-02-22T21:31:50.446Z,58.74
2023-02-22T21:34:18.899Z,58.49
2023-02-22T21:36:47.136Z,58.59
2023-02-22T21:39:18.488Z,58.62
2023-02-22T21:41:51.594Z,58.62
2023-02-22T21:44:20.424Z,58.48
2023-02-22T21:46:49.976Z,58.35
2023-02-22T21:49:22.723Z,58.41
2023-02-22T21:51:52.766Z,58.49
2023-02-22T21:54:21.041Z,58.31
2023-02-22T21:56:49.977Z,58.25
2023-02-22T21:59:20.363Z,58.28
2023-02-22T22:01:51.662Z,58.28
2023-02-22T22:04:22.911Z,58.63
2023-02-22T22:06:52.523Z,58.89
2023-02-22T22:09:23.899Z,58.83
2023-02-22T22:12:03.367Z,58.79
2023-02-22T22:14:32.964Z,59.02
2023-02-22T22:17:01.666Z,58.56
2023-02-22T22:19:33.897Z,58.30
2023-02-22T22:22:03.101Z,58.26
2023-02-22T22:24:32.423Z,58.15
2023-02-22T22:27:03.937Z,58.35
2023-02-22T22:29:34.681Z,58.55
2023-02-22T22:32:03.514Z,58.22
2023-02-22T22:34:34.582Z,58.34
2023-02-22T22:37:03.218Z,58.32
2023-02-22T22:39:31.725Z,58.24
2023-02-22T22:42:00.041Z,58.38
2023-02-22T22:44:33.153Z,58.50
2023-02-22T22:47:01.654Z,58.48
2023-02-22T22:49:31.601Z,58.46
2023-02-22T22:52:00.119Z,58.75
2023-02-22T22:54:29.243Z,59.24
2023-02-22T22:56:57.593Z,59.59
2023-02-22T22:59:28.047Z,59.80
2023-02-22T23:01:57.008Z,60.09
2023-02-22T23:04:25.903Z,61.16
2023-02-22T23:06:55.096Z,61.57
2023-02-22T23:09:31.942Z,62.03
2023-02-22T23:12:16.949Z,61.96
2023-02-22T23:14:45.870Z,62.56
2023-02-22T23:17:26.993Z,62.56
2023-02-22T23:19:55.251Z,62.00
2023-02-22T23:22:23.596Z,62.42
2023-02-22T23:24:52.050Z,62.47
2023-02-22T23:27:20.342Z,63.01
2023-02-22T23:29:49.849Z,62.65
2023-02-22T23:32:18.319Z,62.75
2023-02-22T23:34:49.891Z,62.84
2023-02-22T23:37:20.964Z,62.82
2023-02-22T23:39:51.212Z,62.63
2023-02-22T23:42:19.598Z,63.01
2023-02-22T23:44:48.332Z,63.37
2023-02-22T23:47:16.869Z,63.57
2023-02-22T23:49:45.776Z,63.60
2023-02-22T23:52:14.026Z,62.94
2023-02-22T23:54:46.920Z,63.29
2023-02-22T23:57:17.998Z,63.47
2023-02-22T23:59:46.727Z,63.63
